createdAt,value
2022-09-13T00:04:53.324Z,6.78
2022-09-13T00:09:54.919Z,6.47
2022-09-13T00:14:56.524Z,6.38
2022-09-13T00:19:58.228Z,6.53
2022-09-13T00:24:59.861Z,6.10
2022-09-13T00:30:01.628Z,6.10
2022-09-13T00:35:05.403Z,5.97
2022-09-13T00:40:07.823Z,6.80
2022-09-13T00:45:12.344Z,6.90
2022-09-13T00:50:35.102Z,7.05
2022-09-13T00:56:00.667Z,6.38
2022-09-13T01:01:05.604Z,7.18
2022-09-13T01:06:13.407Z,7.50
2022-09-13T01:11:30.065Z,6.30
2022-09-13T01:16:31.934Z,6.20
2022-09-13T01:21:36.577Z,6.55
2022-09-13T01:27:15.409Z,5.97
2022-09-13T01:32:43.100Z,6.60
2022-09-13T01:37:57.833Z,7.30
2022-09-13T01:43:17.519Z,7.43
2022-09-13T01:48:35.509Z,6.85
2022-09-13T01:53:56.187Z,7.10
2022-09-13T01:59:16.628Z,7.22
2022-09-13T02:04:23.600Z,7.15
2022-09-13T02:09:28.695Z,6.70
2022-09-13T02:14:41.661Z,6.72
2022-09-13T02:19:52.891Z,7.38
2022-09-13T02:25:02.007Z,6.90
2022-09-13T02:30:14.473Z,6.65
2022-09-13T02:35:21.447Z,6.85
2022-09-13T02:40:28.796Z,6.82
2022-09-13T02:45:37.710Z,7.00
2022-09-13T02:51:07.914Z,7.25
2022-09-13T02:56:34.792Z,6.82
2022-09-13T03:01:39.677Z,6.97
2022-09-13T03:06:42.359Z,6.68
2022-09-13T03:11:54.488Z,7.10
2022-09-13T03:17:07.205Z,6.90
2022-09-13T03:22:32.955Z,7.88
2022-09-13T03:27:52.522Z,7.43
2022-09-13T03:32:59.843Z,6.78
2022-09-13T03:38:12.660Z,7.97
2022-09-13T03:43:21.426Z,7.13
2022-09-13T03:48:23.729Z,7.35
2022-09-13T03:53:28.802Z,7.35
2022-09-13T03:58:30.412Z,9.05
2022-09-13T04:03:32.232Z,7.20
2022-09-13T04:08:33.967Z,7.85
2022-09-13T04:13:38.757Z,8.23
2022-09-13T04:18:40.574Z,7.55
2022-09-13T04:23:42.231Z,8.75
2022-09-13T04:28:43.861Z,7.57
2022-09-13T04:33:45.725Z,7.60
2022-09-13T04:38:47.551Z,7.38
2022-09-13T04:43:50.779Z,7.20
2022-09-13T04:48:52.904Z,7.55
2022-09-13T04:53:55.493Z,7.60
2022-09-13T04:58:57.166Z,7.57
2022-09-13T05:03:58.791Z,7.68
2022-09-13T05:09:00.504Z,8.30
2022-09-13T05:14:02.591Z,8.68
2022-09-13T05:19:04.318Z,8.15
2022-09-13T05:24:06.140Z,8.50
2022-09-13T05:29:07.829Z,8.10
2022-09-13T05:34:12.350Z,7.88
2022-09-13T05:39:48.510Z,9.02
2022-09-13T05:44:39.485Z,8.52
2022-09-13T05:49:56.724Z,8.75
2022-09-13T05:55:03.168Z,9.95
2022-09-13T06:00:05.192Z,8.95
2022-09-13T06:05:14.656Z,7.93
2022-09-13T06:10:16.314Z,7.28
2022-09-13T06:15:17.925Z,5.50
2022-09-13T06:20:19.571Z,5.35
2022-09-13T06:25:21.177Z,4.68
2022-09-13T06:30:22.839Z,4.45
2022-09-13T06:35:24.538Z,5.20
2022-09-13T06:40:26.480Z,5.10
2022-09-13T06:45:28.142Z,5.07
2022-09-13T06:50:29.819Z,4.43
2022-09-13T06:55:31.494Z,4.65
2022-09-13T07:00:33.149Z,4.03
2022-09-13T07:05:34.874Z,4.03
2022-09-13T07:10:36.465Z,3.80
2022-09-13T07:15:38.158Z,4.07
2022-09-13T07:20:39.841Z,4.03
2022-09-13T07:25:42.662Z,4.13
2022-09-13T07:30:44.383Z,3.90
2022-09-13T07:35:45.992Z,3.22
2022-09-13T07:40:57.459Z,3.35
2022-09-13T07:46:04.600Z,3.53
2022-09-13T07:51:12.159Z,3.78
2022-09-13T07:56:19.580Z,3.28
2022-09-13T08:01:26.430Z,3.17
2022-09-13T08:06:31.587Z,3.58
2022-09-13T08:11:36.472Z,3.95
2022-09-13T08:16:39.543Z,4.65
2022-09-13T08:21:42.559Z,5.15
2022-09-13T08:26:44.682Z,5.38
2022-09-13T08:31:46.327Z,5.00
2022-09-13T08:36:48.046Z,4.55
2022-09-13T08:42:01.312Z,4.07
2022-09-13T08:47:18.740Z,3.90
2022-09-13T08:52:33.292Z,3.58
2022-09-13T08:57:45.720Z,3.47
2022-09-13T09:03:11.218Z,4.05
2022-09-13T09:08:24.355Z,3.15
2022-09-13T09:13:43.933Z,3.88
2022-09-13T09:18:49.116Z,4.07
2022-09-13T09:23:54.339Z,3.92
2022-09-13T09:29:00.680Z,3.95
2022-09-13T09:34:22.913Z,3.50
2022-09-13T09:39:33.329Z,3.20
2022-09-13T09:44:36.179Z,3.53
2022-09-13T09:50:10.417Z,3.88
2022-09-13T09:55:35.531Z,3.28
2022-09-13T10:00:50.972Z,3.30
2022-09-13T10:06:11.799Z,3.10
2022-09-13T10:11:14.627Z,3.05
2022-09-13T10:16:30.307Z,3.22
2022-09-13T10:21:32.931Z,3.08
2022-09-13T10:26:36.878Z,2.63
2022-09-13T10:31:48.730Z,2.97
2022-09-13T10:37:31.896Z,2.95
2022-09-13T10:42:34.888Z,2.90
2022-09-13T10:47:48.422Z,2.20
2022-09-13T10:52:52.887Z,2.58
2022-09-13T10:58:03.789Z,1.92
2022-09-13T11:03:14.920Z,2.08
2022-09-13T11:08:49.453Z,1.98
2022-09-13T11:14:08.926Z,2.13
2022-09-13T11:19:42.042Z,1.92
2022-09-13T11:25:17.306Z,1.90
2022-09-13T11:30:29.171Z,2.25
2022-09-13T11:35:43.109Z,2.10
2022-09-13T11:40:58.479Z,2.72
2022-09-13T11:46:12.503Z,3.80
2022-09-13T11:51:43.350Z,2.63
2022-09-13T11:56:53.906Z,2.30
2022-09-13T12:02:01.750Z,3.08
2022-09-13T12:07:11.908Z,2.00
2022-09-13T12:12:14.541Z,2.10
2022-09-13T12:17:29.413Z,2.25
2022-09-13T12:22:35.155Z,2.92
2022-09-13T12:27:42.308Z,3.28
2022-09-13T12:32:46.236Z,2.17
2022-09-13T12:38:19.691Z,1.98
2022-09-13T12:43:56.084Z,2.03
2022-09-13T12:49:06.504Z,2.33
2022-09-13T12:54:29.069Z,2.42
2022-09-13T12:59:39.603Z,1.98
2022-09-13T13:04:41.925Z,1.80
2022-09-13T13:09:46.184Z,2.45
2022-09-13T13:14:53.744Z,2.05
2022-09-13T13:19:55.599Z,1.90
2022-09-13T13:24:57.344Z,1.83
2022-09-13T13:30:32.770Z,1.67
2022-09-13T13:35:34.426Z,1.58
2022-09-13T13:40:36.675Z,1.95
2022-09-13T13:45:38.406Z,1.48
2022-09-13T13:51:19.700Z,1.38
2022-09-13T13:56:33.309Z,1.58
2022-09-13T14:01:39.219Z,1.48
2022-09-13T14:07:03.098Z,3.05
2022-09-13T14:12:13.799Z,4.35
2022-09-13T14:17:49.187Z,1.92
2022-09-13T14:22:50.908Z,1.65
2022-09-13T14:27:56.960Z,1.42
2022-09-13T14:32:58.787Z,6.22
2022-09-13T14:38:21.225Z,2.72
2022-09-13T14:43:27.270Z,1.80
2022-09-13T14:48:53.253Z,1.88
2022-09-13T14:54:01.399Z,2.20
2022-09-13T14:59:07.170Z,2.08
2022-09-13T15:04:09.265Z,2.33
2022-09-13T15:09:11.152Z,2.00
2022-09-13T15:14:12.704Z,2.00
2022-09-13T15:19:28.330Z,2.22
2022-09-13T15:24:33.516Z,2.28
2022-09-13T15:29:37.607Z,2.00
2022-09-13T15:34:46.300Z,2.33
2022-09-13T15:40:19.586Z,2.75
2022-09-13T15:45:22.685Z,3.50
2022-09-13T15:50:31.064Z,3.53
2022-09-13T15:55:32.774Z,4.65
2022-09-13T16:00:34.382Z,3.15
2022-09-13T16:05:36.716Z,2.22
2022-09-13T16:10:38.631Z,2.10
2022-09-13T16:15:40.349Z,2.00
2022-09-13T16:20:42.507Z,2.17
2022-09-13T16:25:44.542Z,2.58
2022-09-13T16:30:47.184Z,1.95
2022-09-13T16:35:48.797Z,1.70
2022-09-13T16:40:50.410Z,2.17
2022-09-13T16:45:52.088Z,1.60
2022-09-13T16:50:53.667Z,1.70
2022-09-13T16:56:08.293Z,1.88
2022-09-13T17:01:12.267Z,1.95
2022-09-13T17:06:16.432Z,2.10
2022-09-13T17:11:20.921Z,2.45
2022-09-13T17:16:25.214Z,2.03
2022-09-13T17:21:27.784Z,2.13
2022-09-13T17:26:29.699Z,1.50
2022-09-13T17:31:31.418Z,2.00
2022-09-13T17:36:33.140Z,2.15
2022-09-13T17:41:35.198Z,2.55
2022-09-13T17:46:36.855Z,1.92
2022-09-13T17:51:38.483Z,2.20
2022-09-13T17:56:42.921Z,2.20
2022-09-13T18:01:47.239Z,2.33
2022-09-13T18:06:51.737Z,2.45
2022-09-13T18:11:53.416Z,2.47
2022-09-13T18:16:57.362Z,2.90
2022-09-13T18:22:01.454Z,2.28
2022-09-13T18:27:04.035Z,2.13
2022-09-13T18:32:05.952Z,3.05
2022-09-13T18:37:07.699Z,3.22
2022-09-13T18:42:09.304Z,2.83
2022-09-13T18:47:13.038Z,2.95
2022-09-13T18:52:15.034Z,2.90
2022-09-13T18:57:17.078Z,2.97
2022-09-13T19:02:19.996Z,2.83
2022-09-13T19:07:22.425Z,2.72
2022-09-13T19:12:24.045Z,2.80
2022-09-13T19:17:25.642Z,2.80
2022-09-13T19:22:27.335Z,3.88
2022-09-13T19:27:28.989Z,4.70
2022-09-13T19:32:30.590Z,3.30
2022-09-13T19:37:32.695Z,2.88
2022-09-13T19:42:34.288Z,5.15
2022-09-13T19:52:57.916Z,2.90
2022-09-13T19:57:59.601Z,2.78
2022-09-13T20:03:01.358Z,3.10
2022-09-13T20:08:03.543Z,3.05
2022-09-13T20:13:05.237Z,3.80
2022-09-13T20:18:13.191Z,5.65
2022-09-13T20:23:17.249Z,4.35
2022-09-13T20:28:18.919Z,4.68
2022-09-13T20:33:20.658Z,4.05
2022-09-13T20:38:22.350Z,4.20
2022-09-13T20:43:23.971Z,5.05
2022-09-13T20:48:26.004Z,6.35
2022-09-13T20:53:28.430Z,5.85
2022-09-13T20:58:30.703Z,5.47
2022-09-13T21:03:37.495Z,5.32
2022-09-13T21:08:44.032Z,5.85
2022-09-13T21:13:52.370Z,4.97
2022-09-13T21:18:54.380Z,4.97
2022-09-13T21:23:57.576Z,5.15
2022-09-13T21:29:00.136Z,5.18
2022-09-13T21:34:04.953Z,5.53
2022-09-13T21:39:07.347Z,5.53
2022-09-13T21:44:10.170Z,6.18
2022-09-13T21:49:12.892Z,6.50
2022-09-13T21:54:17.252Z,6.45
2022-09-13T21:59:20.622Z,6.13
2022-09-13T22:04:27.265Z,6.15
2022-09-13T22:09:29.254Z,6.07
2022-09-13T22:14:30.910Z,6.65
2022-09-13T22:19:32.522Z,6.10
2022-09-13T22:24:35.817Z,5.60
2022-09-13T22:29:37.501Z,5.13
2022-09-13T22:34:40.833Z,5.55
2022-09-13T22:39:42.513Z,5.57
2022-09-13T22:44:44.148Z,5.03
2022-09-13T22:49:45.779Z,5.88
2022-09-13T22:54:50.830Z,5.30
2022-09-13T22:59:52.758Z,4.93
2022-09-13T23:04:54.603Z,4.75
2022-09-13T23:09:56.204Z,5.25
2022-09-13T23:14:57.796Z,4.85
2022-09-13T23:19:59.394Z,5.30
2022-09-13T23:25:01.088Z,5.10
2022-09-13T23:30:02.736Z,5.82
2022-09-13T23:35:04.677Z,5.40
2022-09-13T23:40:06.949Z,5.55
2022-09-13T23:45:08.986Z,5.05
2022-09-13T23:50:10.760Z,5.35
2022-09-13T23:55:14.351Z,5.30
